createdAt,value
2023-05-15T00:01:44.456Z,97046.00
2023-05-15T00:04:12.971Z,97062.00
2023-05-15T00:06:41.340Z,97062.00
2023-05-15T00:09:09.657Z,97059.00
2023-05-15T00:11:39.181Z,97050.00
2023-05-15T00:14:07.865Z,97047.00
2023-05-15T00:16:36.100Z,97048.00
2023-05-15T00:19:04.564Z,97036.00
2023-05-15T00:21:32.837Z,97056.00
2023-05-15T00:24:01.034Z,97049.00
2023-05-15T00:26:29.278Z,97043.00
2023-05-15T00:28:58.867Z,97035.00
2023-05-15T00:31:27.148Z,97033.00
2023-05-15T00:33:55.396Z,97041.00
2023-05-15T00:36:25.521Z,97050.00
2023-05-15T00:38:53.876Z,97032.00
2023-05-15T00:41:24.067Z,97047.00
2023-05-15T00:43:54.943Z,97045.00
2023-05-15T00:46:26.788Z,97028.00
2023-05-15T00:48:57.196Z,97024.00
2023-05-15T00:51:27.196Z,97031.00
2023-05-15T00:53:56.793Z,97013.00
2023-05-15T00:56:26.555Z,97028.00
2023-05-15T00:58:57.352Z,97019.00
2023-05-15T01:01:27.090Z,97028.00
2023-05-15T01:03:55.369Z,97023.00
2023-05-15T01:06:23.532Z,97023.00
2023-05-15T01:08:54.349Z,97014.00
2023-05-15T01:11:25.972Z,97020.00
2023-05-15T01:13:54.116Z,97020.00
2023-05-15T01:16:23.547Z,97013.00
2023-05-15T01:18:53.204Z,97012.00
2023-05-15T01:22:21.534Z,97011.00
2023-05-15T01:25:41.190Z,97011.00
2023-05-15T01:28:17.377Z,97004.00
2023-05-15T01:30:49.215Z,97006.00
2023-05-15T01:33:25.670Z,97008.00
2023-05-15T01:36:01.206Z,97022.00
2023-05-15T01:38:37.974Z,97011.00
2023-05-15T01:41:16.440Z,97020.00
2023-05-15T01:43:55.591Z,97027.00
2023-05-15T01:46:25.214Z,97016.00
2023-05-15T01:48:56.103Z,97019.00
2023-05-15T01:51:27.152Z,97018.00
2023-05-15T01:53:58.399Z,97005.00
2023-05-15T01:56:28.463Z,97011.00
2023-05-15T01:59:00.268Z,97023.00
2023-05-15T02:01:33.837Z,97005.00
2023-05-15T02:04:04.568Z,97005.00
2023-05-15T02:06:34.163Z,96990.00
2023-05-15T02:09:04.644Z,97010.00
2023-05-15T02:11:33.014Z,97003.00
2023-05-15T02:14:03.304Z,97009.00
2023-05-15T02:16:31.707Z,97018.00
2023-05-15T02:19:00.013Z,96993.00
2023-05-15T02:21:28.118Z,96997.00
2023-05-15T02:23:56.279Z,96997.00
2023-05-15T02:26:40.477Z,97000.00
2023-05-15T02:29:20.450Z,97003.00
2023-05-15T02:32:00.656Z,97000.00
2023-05-15T02:34:45.439Z,97002.00
2023-05-15T02:37:21.898Z,97009.00
2023-05-15T02:39:54.308Z,97006.00
2023-05-15T02:42:23.685Z,96991.00
2023-05-15T02:44:56.133Z,96977.00
2023-05-15T02:47:26.005Z,96979.00
2023-05-15T02:49:56.387Z,96977.00
2023-05-15T02:52:25.626Z,96979.00
2023-05-15T02:54:54.222Z,96988.00
2023-05-15T02:57:22.553Z,96975.00
2023-05-15T02:59:52.171Z,96973.00
2023-05-15T03:02:20.276Z,96985.00
2023-05-15T03:04:48.406Z,96987.00
2023-05-15T03:07:16.587Z,96975.00
2023-05-15T03:09:44.775Z,96983.00
2023-05-15T03:12:12.943Z,96985.00
2023-05-15T03:14:41.085Z,96984.00
2023-05-15T03:17:10.653Z,96987.00
2023-05-15T03:19:38.723Z,96977.00
2023-05-15T03:22:07.166Z,96971.00
2023-05-15T03:24:35.387Z,96973.00
2023-05-15T03:27:03.960Z,96982.00
2023-05-15T03:29:32.263Z,96974.00
2023-05-15T03:32:00.476Z,96975.00
2023-05-15T03:34:30.019Z,96967.00
2023-05-15T03:36:58.212Z,96978.00
2023-05-15T03:39:26.349Z,96969.00
2023-05-15T03:41:54.441Z,96966.00
2023-05-15T03:44:23.898Z,96962.00
2023-05-15T03:46:52.038Z,96966.00
2023-05-15T03:49:20.171Z,96968.00
2023-05-15T03:51:49.690Z,96962.00
2023-05-15T03:54:18.258Z,96969.00
2023-05-15T03:56:50.368Z,96974.00
2023-05-15T03:59:18.798Z,96967.00
2023-05-15T04:02:02.594Z,96971.00
2023-05-15T04:04:31.554Z,96977.00
2023-05-15T04:07:01.385Z,96979.00
2023-05-15T04:09:29.562Z,96972.00
2023-05-15T04:11:57.719Z,96972.00
2023-05-15T04:14:25.958Z,96970.00
2023-05-15T04:16:54.161Z,96970.00
2023-05-15T04:19:22.336Z,96958.00
2023-05-15T04:21:50.688Z,96962.00
2023-05-15T04:24:20.308Z,96979.00
2023-05-15T04:26:48.440Z,96972.00
2023-05-15T04:29:16.660Z,96981.00
2023-05-15T04:31:44.777Z,96972.00
2023-05-15T04:34:13.096Z,96970.00
2023-05-15T04:36:42.918Z,96969.00
2023-05-15T04:39:11.476Z,96961.00
2023-05-15T04:41:40.915Z,96969.00
2023-05-15T04:44:09.417Z,96962.00
2023-05-15T04:46:37.711Z,96968.00
2023-05-15T04:49:06.602Z,96962.00
2023-05-15T04:51:35.065Z,96958.00
2023-05-15T04:54:03.339Z,96970.00
2023-05-15T04:56:31.471Z,96975.00
2023-05-15T04:59:01.026Z,96964.00
2023-05-15T05:01:30.433Z,96973.00
2023-05-15T05:03:58.630Z,96956.00
2023-05-15T05:06:28.105Z,96963.00
2023-05-15T05:08:57.969Z,96958.00
2023-05-15T05:11:26.053Z,96965.00
2023-05-15T05:13:54.134Z,96966.00
2023-05-15T05:16:23.694Z,96965.00
2023-05-15T05:18:51.888Z,96977.00
2023-05-15T05:21:20.123Z,96977.00
2023-05-15T05:23:48.239Z,96965.00
2023-05-15T05:26:16.368Z,96969.00
2023-05-15T05:28:44.456Z,96965.00
2023-05-15T05:31:12.613Z,96973.00
2023-05-15T05:33:42.322Z,96963.00
2023-05-15T05:36:11.293Z,96970.00
2023-05-15T05:38:39.551Z,96970.00
2023-05-15T05:41:07.780Z,96976.00
2023-05-15T05:43:35.978Z,96975.00
2023-05-15T05:46:04.272Z,96985.00
2023-05-15T05:48:32.363Z,96970.00
2023-05-15T05:51:01.818Z,96983.00
2023-05-15T05:53:29.877Z,96984.00
2023-05-15T05:55:58.336Z,96967.00
2023-05-15T05:58:26.589Z,96966.00
2023-05-15T06:00:55.132Z,96976.00
2023-05-15T06:03:24.027Z,96967.00
2023-05-15T06:05:52.896Z,96971.00
2023-05-15T06:08:22.561Z,96972.00
2023-05-15T06:10:50.701Z,96981.00
2023-05-15T06:13:18.982Z,96980.00
2023-05-15T06:15:47.384Z,96988.00
2023-05-15T06:18:15.816Z,96982.00
2023-05-15T06:20:44.042Z,96976.00
2023-05-15T06:23:12.147Z,96962.00
2023-05-15T06:25:41.982Z,96970.00
2023-05-15T06:28:10.179Z,96969.00
2023-05-15T06:30:38.434Z,96970.00
2023-05-15T06:33:06.612Z,96964.00
2023-05-15T06:35:34.800Z,96967.00
2023-05-15T06:38:02.982Z,96971.00
2023-05-15T06:40:31.277Z,96960.00
2023-05-15T06:43:00.726Z,96961.00
2023-05-15T06:45:29.150Z,96968.00
2023-05-15T06:47:59.948Z,96971.00
2023-05-15T06:50:29.730Z,96969.00
2023-05-15T06:52:57.798Z,96972.00
2023-05-15T06:55:26.303Z,96969.00
2023-05-15T06:57:54.644Z,96964.00
2023-05-15T07:00:24.325Z,96969.00
2023-05-15T07:02:52.566Z,96967.00
2023-05-15T07:05:21.794Z,96981.00
2023-05-15T07:07:50.031Z,96968.00
2023-05-15T07:10:18.404Z,96963.00
2023-05-15T07:12:46.572Z,96960.00
2023-05-15T07:15:14.667Z,96961.00
2023-05-15T07:17:44.225Z,96958.00
2023-05-15T07:20:13.230Z,96970.00
2023-05-15T07:22:48.339Z,96969.00
2023-05-15T07:25:24.817Z,96962.00
2023-05-15T07:27:53.624Z,96969.00
2023-05-15T07:30:21.957Z,96976.00
2023-05-15T07:32:51.500Z,96965.00
2023-05-15T07:35:19.770Z,96961.00
2023-05-15T07:37:47.932Z,96968.00
2023-05-15T07:40:16.511Z,96962.00
2023-05-15T07:42:45.841Z,96961.00
2023-05-15T07:45:14.171Z,96955.00
2023-05-15T07:47:45.808Z,96962.00
2023-05-15T07:50:16.390Z,96957.00
2023-05-15T07:52:45.474Z,96947.00
2023-05-15T07:55:14.040Z,96951.00
2023-05-15T07:57:42.352Z,96950.00
2023-05-15T08:00:13.631Z,96949.00
2023-05-15T08:02:46.157Z,96957.00
2023-05-15T08:05:16.546Z,96943.00
2023-05-15T08:07:44.826Z,96939.00
2023-05-15T08:10:13.046Z,96949.00
2023-05-15T08:12:46.063Z,96946.00
2023-05-15T08:15:15.329Z,96945.00
2023-05-15T08:17:43.557Z,96946.00
2023-05-15T08:20:13.302Z,96939.00
2023-05-15T08:22:42.901Z,96942.00
2023-05-15T08:25:11.579Z,96940.00
2023-05-15T08:27:39.714Z,96946.00
2023-05-15T08:30:09.713Z,96950.00
2023-05-15T08:32:37.920Z,96944.00
2023-05-15T08:35:07.407Z,96943.00
2023-05-15T08:37:35.490Z,96938.00
2023-05-15T08:40:07.854Z,96930.00
2023-05-15T08:42:45.427Z,96938.00
2023-05-15T08:45:14.794Z,96937.00
2023-05-15T08:47:44.604Z,96940.00
2023-05-15T08:50:15.350Z,96939.00
2023-05-15T08:52:45.768Z,96940.00
2023-05-15T08:55:16.070Z,96953.00
2023-05-15T08:57:46.190Z,96948.00
2023-05-15T09:00:16.116Z,96942.00
2023-05-15T09:02:44.492Z,96939.00
2023-05-15T09:05:15.573Z,96936.00
2023-05-15T09:07:46.381Z,96948.00
2023-05-15T09:10:17.710Z,96946.00
2023-05-15T09:12:46.218Z,96946.00
2023-05-15T09:15:17.947Z,96939.00
2023-05-15T09:17:47.058Z,96939.00
2023-05-15T09:20:29.344Z,96938.00
2023-05-15T09:22:58.174Z,96934.00
2023-05-15T09:25:39.841Z,96941.00
2023-05-15T09:28:11.276Z,96927.00
2023-05-15T09:30:39.917Z,96917.00
2023-05-15T09:33:09.997Z,96917.00
2023-05-15T09:35:40.599Z,96929.00
2023-05-15T09:38:12.806Z,96923.00
2023-05-15T09:40:42.520Z,96918.00
2023-05-15T09:43:12.279Z,96908.00
2023-05-15T09:45:40.540Z,96915.00
2023-05-15T09:48:11.824Z,96907.00
2023-05-15T09:50:42.309Z,96898.00
2023-05-15T09:53:14.222Z,96899.00
2023-05-15T09:55:44.442Z,96906.00
2023-05-15T09:58:15.279Z,96907.00
2023-05-15T10:00:47.770Z,96906.00
2023-05-15T10:03:18.867Z,96902.00
2023-05-15T10:05:47.217Z,96901.00
2023-05-15T10:08:16.112Z,96909.00
2023-05-15T10:10:47.215Z,96907.00
2023-05-15T10:13:15.837Z,96885.00
2023-05-15T10:15:44.231Z,96897.00
2023-05-15T10:18:14.428Z,96890.00
2023-05-15T10:20:43.219Z,96883.00
2023-05-15T10:23:15.375Z,96877.00
2023-05-15T10:25:53.545Z,96893.00
2023-05-15T10:28:23.514Z,96896.00
2023-05-15T10:30:54.114Z,96894.00
2023-05-15T10:33:23.050Z,96897.00
2023-05-15T10:35:52.688Z,96882.00
2023-05-15T10:38:22.075Z,96891.00
2023-05-15T10:41:05.585Z,96897.00
2023-05-15T10:43:44.439Z,96898.00
2023-05-15T10:46:14.828Z,96895.00
2023-05-15T10:48:43.542Z,96886.00
2023-05-15T10:51:17.362Z,96899.00
2023-05-15T10:53:46.009Z,96897.00
2023-05-15T10:56:17.551Z,96902.00
2023-05-15T10:58:48.291Z,96903.00
2023-05-15T11:01:28.063Z,96909.00
2023-05-15T11:04:14.443Z,96884.00
2023-05-15T11:06:44.794Z,96894.00
2023-05-15T11:09:40.743Z,96886.00
2023-05-15T11:12:11.720Z,96884.00
2023-05-15T11:14:43.863Z,96876.00
2023-05-15T11:17:15.230Z,96866.00
2023-05-15T11:20:01.247Z,96864.00
2023-05-15T11:22:33.379Z,96863.00
2023-05-15T11:25:04.955Z,96867.00
2023-05-15T11:27:40.996Z,96861.00
2023-05-15T11:30:13.031Z,96860.00
2023-05-15T11:32:58.265Z,96851.00
2023-05-15T11:35:30.018Z,96850.00
2023-05-15T11:38:00.768Z,96840.00
2023-05-15T11:40:30.754Z,96842.00
2023-05-15T11:43:09.500Z,96833.00
2023-05-15T11:45:40.691Z,96828.00
2023-05-15T11:48:14.842Z,96841.00
2023-05-15T11:50:44.212Z,96841.00
2023-05-15T11:53:13.656Z,96846.00
2023-05-15T11:55:44.602Z,96838.00
2023-05-15T11:58:16.757Z,96834.00
2023-05-15T12:00:46.991Z,96841.00
2023-05-15T12:03:23.715Z,96829.00
2023-05-15T12:05:58.892Z,96842.00
2023-05-15T12:08:33.303Z,96834.00
2023-05-15T12:11:02.838Z,96822.00
2023-05-15T12:13:35.136Z,96825.00
2023-05-15T12:16:04.990Z,96821.00
2023-05-15T12:18:33.898Z,96817.00
2023-05-15T12:21:02.192Z,96811.00
2023-05-15T12:23:30.409Z,96808.00
2023-05-15T12:26:02.675Z,96817.00
2023-05-15T12:28:36.046Z,96799.00
2023-05-15T12:31:05.055Z,96804.00
2023-05-15T12:33:33.321Z,96811.00
2023-05-15T12:36:02.062Z,96804.00
2023-05-15T12:38:31.025Z,96810.00
2023-05-15T12:40:59.392Z,96813.00
2023-05-15T12:43:27.895Z,96817.00
2023-05-15T12:45:59.075Z,96813.00
2023-05-15T12:48:32.100Z,96823.00
2023-05-15T12:51:07.867Z,96822.00
2023-05-15T12:53:39.651Z,96829.00
2023-05-15T12:56:09.181Z,96860.00
2023-05-15T12:58:38.228Z,96843.00
2023-05-15T13:01:07.968Z,96838.00
2023-05-15T13:03:36.939Z,96839.00
2023-05-15T13:06:06.968Z,96845.00
2023-05-15T13:08:42.411Z,96844.00
2023-05-15T13:11:14.511Z,96839.00
2023-05-15T13:13:48.395Z,96835.00
2023-05-15T13:16:22.780Z,96833.00
2023-05-15T13:18:51.109Z,96841.00
2023-05-15T13:21:19.985Z,96842.00
2023-05-15T13:23:48.467Z,96831.00
2023-05-15T13:26:16.684Z,96832.00
2023-05-15T13:28:44.868Z,96837.00
2023-05-15T13:31:13.167Z,96835.00
2023-05-15T13:33:42.764Z,96831.00
2023-05-15T13:36:11.010Z,96818.00
2023-05-15T13:38:39.353Z,96846.00
2023-05-15T13:41:07.617Z,96827.00
2023-05-15T13:43:35.733Z,96828.00
2023-05-15T13:46:04.615Z,96833.00
2023-05-15T13:48:33.448Z,96835.00
2023-05-15T13:51:03.250Z,96844.00
2023-05-15T13:53:31.363Z,96835.00
2023-05-15T13:55:59.553Z,96832.00
2023-05-15T13:58:27.695Z,96827.00
2023-05-15T14:00:56.059Z,96828.00
2023-05-15T14:03:24.296Z,96828.00
2023-05-15T14:05:52.731Z,96833.00
2023-05-15T14:08:22.322Z,96840.00
2023-05-15T14:10:50.499Z,96830.00
2023-05-15T14:13:19.546Z,96828.00
2023-05-15T14:15:47.687Z,96825.00
2023-05-15T14:18:15.873Z,96827.00
2023-05-15T14:20:44.229Z,96828.00
2023-05-15T14:23:12.373Z,96827.00
2023-05-15T14:25:42.599Z,96822.00
2023-05-15T14:28:11.352Z,96823.00
2023-05-15T14:30:39.495Z,96826.00
2023-05-15T14:33:07.777Z,96833.00
2023-05-15T14:35:35.906Z,96829.00
2023-05-15T14:38:04.787Z,96821.00
2023-05-15T14:40:33.088Z,96829.00
2023-05-15T14:43:02.782Z,96823.00
2023-05-15T14:45:30.973Z,96823.00
2023-05-15T14:47:59.085Z,96836.00
2023-05-15T14:50:28.456Z,96842.00
2023-05-15T14:52:56.653Z,96838.00
2023-05-15T14:55:24.819Z,96850.00
2023-05-15T14:57:53.064Z,96837.00
2023-05-15T15:00:23.028Z,96849.00
2023-05-15T15:02:51.317Z,96845.00
2023-05-15T15:05:19.648Z,96858.00
2023-05-15T15:08:03.642Z,96854.00
2023-05-15T15:10:33.064Z,96855.00
2023-05-15T15:13:01.519Z,96852.00
2023-05-15T15:15:32.619Z,96858.00
2023-05-15T15:18:01.026Z,96855.00
2023-05-15T15:20:29.708Z,96855.00
2023-05-15T15:22:57.866Z,96865.00
2023-05-15T15:25:26.424Z,96860.00
2023-05-15T15:27:54.682Z,96862.00
2023-05-15T15:30:23.021Z,96858.00
2023-05-15T15:32:54.517Z,96854.00
2023-05-15T15:35:23.193Z,96869.00
2023-05-15T15:37:51.407Z,96864.00
2023-05-15T15:40:20.219Z,96872.00
2023-05-15T15:42:48.425Z,96862.00
2023-05-15T15:45:16.538Z,96862.00
2023-05-15T15:47:44.759Z,96860.00
2023-05-15T15:50:14.245Z,96850.00
2023-05-15T15:52:42.473Z,96848.00
2023-05-15T15:55:11.252Z,96847.00
2023-05-15T15:57:39.488Z,96840.00
2023-05-15T16:00:09.782Z,96858.00
2023-05-15T16:02:38.332Z,96840.00
2023-05-15T16:05:07.772Z,96859.00
2023-05-15T16:07:37.357Z,96856.00
2023-05-15T16:10:12.266Z,96866.00
2023-05-15T16:12:42.473Z,96863.00
2023-05-15T16:17:43.380Z,96862.00
2023-05-15T16:20:12.469Z,96868.00
2023-05-15T16:22:43.286Z,96873.00
2023-05-15T16:25:11.671Z,96871.00
2023-05-15T16:27:39.889Z,96863.00
2023-05-15T16:30:11.386Z,96883.00
2023-05-15T16:32:40.464Z,96874.00
2023-05-15T16:35:09.930Z,96869.00
2023-05-15T16:37:38.145Z,96874.00
2023-05-15T16:40:09.742Z,96877.00
2023-05-15T16:42:38.725Z,96879.00
2023-05-15T16:45:08.881Z,96889.00
2023-05-15T16:47:38.879Z,96886.00
2023-05-15T16:50:08.778Z,96884.00
2023-05-15T16:52:38.839Z,96890.00
2023-05-15T16:55:10.071Z,96874.00
2023-05-15T16:57:38.261Z,96885.00
2023-05-15T17:00:09.434Z,96880.00
2023-05-15T17:02:37.877Z,96885.00
2023-05-15T17:05:08.763Z,96884.00
2023-05-15T17:07:37.495Z,96879.00
2023-05-15T17:10:08.830Z,96890.00
2023-05-15T17:12:37.481Z,96894.00
2023-05-15T17:15:07.295Z,96885.00
2023-05-15T17:17:35.782Z,96906.00
2023-05-15T17:20:05.622Z,96901.00
2023-05-15T17:22:33.925Z,96904.00
2023-05-15T17:25:02.147Z,96899.00
2023-05-15T17:27:32.298Z,96906.00
2023-05-15T17:30:00.763Z,96894.00
2023-05-15T17:32:30.123Z,96910.00
2023-05-15T17:34:58.324Z,96895.00
2023-05-15T17:37:26.495Z,96910.00
2023-05-15T17:39:59.131Z,96912.00
2023-05-15T17:42:28.373Z,96909.00
2023-05-15T17:44:58.110Z,96919.00
2023-05-15T17:47:26.359Z,96928.00
2023-05-15T17:49:55.446Z,96930.00
2023-05-15T17:52:23.692Z,96938.00
2023-05-15T17:54:54.428Z,96955.00
2023-05-15T17:57:22.548Z,96951.00
2023-05-15T17:59:50.873Z,96964.00
2023-05-15T18:02:20.367Z,96962.00
2023-05-15T18:04:48.560Z,96977.00
2023-05-15T18:07:16.752Z,96986.00
2023-05-15T18:09:45.070Z,96962.00
2023-05-15T18:12:13.544Z,96968.00
2023-05-15T18:14:41.958Z,96990.00
2023-05-15T18:17:10.114Z,96997.00
2023-05-15T18:19:40.029Z,97012.00
2023-05-15T18:22:08.130Z,97017.00
2023-05-15T18:24:36.275Z,97019.00
2023-05-15T18:27:04.917Z,97023.00
2023-05-15T18:29:33.126Z,97024.00
2023-05-15T18:32:01.388Z,97032.00
2023-05-15T18:34:29.588Z,97030.00
2023-05-15T18:36:59.208Z,97026.00
2023-05-15T18:39:27.377Z,97026.00
2023-05-15T18:41:55.510Z,97042.00
2023-05-15T18:44:23.691Z,97042.00
2023-05-15T18:46:52.062Z,97039.00
2023-05-15T18:49:21.386Z,97032.00
2023-05-15T18:51:49.600Z,97027.00
2023-05-15T18:54:19.145Z,97034.00
2023-05-15T18:56:47.279Z,97024.00
2023-05-15T18:59:15.627Z,97037.00
2023-05-15T19:01:44.959Z,97031.00
2023-05-15T19:04:13.754Z,97042.00
2023-05-15T19:06:44.129Z,97039.00
2023-05-15T19:09:12.316Z,97021.00
2023-05-15T19:11:42.963Z,97025.00
2023-05-15T19:14:15.323Z,97024.00
2023-05-15T19:16:43.726Z,97020.00
2023-05-15T19:19:12.434Z,97032.00
2023-05-15T19:21:40.788Z,97026.00
2023-05-15T19:24:09.519Z,97033.00
2023-05-15T19:26:37.713Z,97024.00
2023-05-15T19:29:07.255Z,97030.00
2023-05-15T19:31:35.524Z,97023.00
2023-05-15T19:34:07.046Z,97041.00
2023-05-15T19:36:35.188Z,97038.00
2023-05-15T19:39:03.427Z,97051.00
2023-05-15T19:41:31.538Z,97045.00
2023-05-15T19:43:59.672Z,97037.00
2023-05-15T19:46:29.526Z,97038.00
2023-05-15T19:48:57.784Z,97031.00
2023-05-15T19:51:26.104Z,97042.00
2023-05-15T19:53:54.204Z,97042.00
2023-05-15T19:56:24.250Z,97048.00
2023-05-15T19:58:52.593Z,97049.00
2023-05-15T20:01:20.824Z,97056.00
2023-05-15T20:03:50.450Z,97059.00
2023-05-15T20:06:18.977Z,97050.00
2023-05-15T20:08:47.859Z,97052.00
2023-05-15T20:11:16.053Z,97055.00
2023-05-15T20:13:44.296Z,97059.00
2023-05-15T20:16:16.372Z,97052.00
2023-05-15T20:18:47.778Z,97048.00
2023-05-15T20:21:17.852Z,97056.00
2023-05-15T20:23:46.346Z,97054.00
2023-05-15T20:26:14.570Z,97064.00
2023-05-15T20:28:45.232Z,97052.00
2023-05-15T20:31:13.780Z,97058.00
2023-05-15T20:33:42.016Z,97070.00
2023-05-15T20:36:10.603Z,97068.00
2023-05-15T20:38:40.586Z,97064.00
2023-05-15T20:41:08.775Z,97056.00
2023-05-15T20:43:38.393Z,97068.00
2023-05-15T20:46:09.754Z,97061.00
2023-05-15T20:48:37.899Z,97076.00
2023-05-15T20:51:06.081Z,97068.00
2023-05-15T20:53:34.269Z,97066.00
2023-05-15T20:56:04.183Z,97076.00
2023-05-15T20:58:32.371Z,97083.00
2023-05-15T21:01:01.499Z,97062.00
2023-05-15T21:03:30.375Z,97056.00
2023-05-15T21:05:58.677Z,97062.00
2023-05-15T21:08:27.736Z,97066.00
2023-05-15T21:10:55.884Z,97060.00
2023-05-15T21:13:25.412Z,97069.00
2023-05-15T21:15:53.518Z,97067.00
2023-05-15T21:18:21.648Z,97075.00
2023-05-15T21:20:49.815Z,97068.00
2023-05-15T21:23:18.167Z,97065.00
2023-05-15T21:25:46.318Z,97064.00
2023-05-15T21:28:14.486Z,97059.00
2023-05-15T21:30:44.379Z,97069.00
2023-05-15T21:33:12.538Z,97079.00
2023-05-15T21:35:40.733Z,97077.00
2023-05-15T21:38:08.834Z,97067.00
2023-05-15T21:40:37.306Z,97077.00
2023-05-15T21:43:05.626Z,97072.00
2023-05-15T21:45:33.750Z,97070.00
2023-05-15T21:48:03.818Z,97075.00
2023-05-15T21:50:32.642Z,97088.00
2023-05-15T21:53:01.101Z,97072.00
2023-05-15T21:55:29.272Z,97064.00
2023-05-15T21:57:57.372Z,97071.00
2023-05-15T22:00:25.878Z,97075.00
2023-05-15T22:02:54.181Z,97073.00
2023-05-15T22:05:24.115Z,97077.00
2023-05-15T22:07:52.222Z,97080.00
2023-05-15T22:10:20.919Z,97076.00
2023-05-15T22:12:49.441Z,97085.00
2023-05-15T22:15:17.809Z,97092.00
2023-05-15T22:17:45.950Z,97080.00
2023-05-15T22:20:14.779Z,97088.00
2023-05-15T22:22:44.299Z,97080.00
2023-05-15T22:25:12.951Z,97082.00
2023-05-15T22:27:41.714Z,97078.00
2023-05-15T22:30:10.895Z,97086.00
2023-05-15T22:32:39.373Z,97074.00
2023-05-15T22:35:09.641Z,97081.00
2023-05-15T22:37:38.364Z,97084.00
2023-05-15T22:40:11.510Z,97090.00
2023-05-15T22:42:39.749Z,97082.00
2023-05-15T22:45:10.032Z,97090.00
2023-05-15T22:47:38.825Z,97083.00
2023-05-15T22:50:09.480Z,97081.00
2023-05-15T22:52:38.099Z,97087.00
2023-05-15T22:55:10.273Z,97077.00
2023-05-15T22:57:38.584Z,97080.00
2023-05-15T23:00:09.673Z,97080.00
2023-05-15T23:02:38.633Z,97080.00
2023-05-15T23:05:07.791Z,97085.00
2023-05-15T23:07:35.947Z,97083.00
2023-05-15T23:10:04.207Z,97081.00
2023-05-15T23:12:33.691Z,97072.00
2023-05-15T23:15:01.863Z,97092.00
2023-05-15T23:17:30.454Z,97087.00
2023-05-15T23:19:58.728Z,97077.00
2023-05-15T23:22:26.894Z,97087.00
2023-05-15T23:24:55.010Z,97084.00
2023-05-15T23:27:23.171Z,97081.00
2023-05-15T23:29:55.191Z,97092.00
2023-05-15T23:32:23.338Z,97093.00
2023-05-15T23:34:51.933Z,97087.00
2023-05-15T23:37:20.076Z,97092.00
2023-05-15T23:39:48.412Z,97101.00
2023-05-15T23:42:16.521Z,97087.00
2023-05-15T23:44:45.750Z,97095.00
2023-05-15T23:47:16.221Z,97085.00
2023-05-15T23:49:44.399Z,97094.00
2023-05-15T23:52:15.625Z,97090.00
2023-05-15T23:54:43.800Z,97097.00
2023-05-15T23:57:12.015Z,97113.00
2023-05-15T23:59:40.283Z,97106.00
